createdAt,value
2022-12-19T00:00:38.935Z,65.50
2022-12-19T00:03:45.574Z,67.28
2022-12-19T00:06:48.123Z,69.15
2022-12-19T00:09:50.863Z,65.93
2022-12-19T00:12:53.281Z,64.70
2022-12-19T00:15:55.938Z,68.13
2022-12-19T00:19:00.971Z,71.50
2022-12-19T00:22:07.069Z,69.65
2022-12-19T00:25:12.255Z,74.17
2022-12-19T00:28:15.354Z,73.50
2022-12-19T00:31:22.449Z,73.80
2022-12-19T00:34:25.001Z,77.07
2022-12-19T00:37:27.633Z,76.10
2022-12-19T00:40:32.242Z,69.80
2022-12-19T00:43:35.561Z,78.93
2022-12-19T00:46:38.936Z,69.00
2022-12-19T00:49:41.465Z,66.65
2022-12-19T00:52:44.978Z,69.00
2022-12-19T00:55:47.499Z,72.57
2022-12-19T00:58:50.540Z,77.47
2022-12-19T01:01:53.160Z,75.18
2022-12-19T01:04:55.750Z,75.77
2022-12-19T01:07:58.177Z,76.93
2022-12-19T01:11:00.823Z,74.25
2022-12-19T01:14:03.189Z,79.80
2022-12-19T01:17:05.805Z,81.40
2022-12-19T01:20:09.114Z,84.25
2022-12-19T01:23:11.914Z,79.53
2022-12-19T01:26:14.371Z,78.40
2022-12-19T01:29:17.046Z,87.82
2022-12-19T01:32:20.411Z,87.93
2022-12-19T01:35:23.730Z,87.57
2022-12-19T01:38:26.779Z,81.85
2022-12-19T01:41:29.302Z,84.80
2022-12-19T01:44:31.791Z,80.63
2022-12-19T01:47:45.221Z,86.95
2022-12-19T01:51:01.360Z,87.43
2022-12-19T01:54:10.020Z,87.03
2022-12-19T01:57:15.719Z,85.37
2022-12-19T02:00:18.957Z,90.70
2022-12-19T02:03:33.524Z,85.45
2022-12-19T02:06:37.637Z,94.05
2022-12-19T02:09:40.505Z,79.13
2022-12-19T02:12:45.666Z,91.03
2022-12-19T02:15:49.198Z,76.97
2022-12-19T02:19:13.770Z,86.53
2022-12-19T02:22:25.050Z,82.25
2022-12-19T02:25:44.178Z,90.75
2022-12-19T02:29:15.440Z,92.28
2022-12-19T02:32:47.065Z,87.55
2022-12-19T02:36:03.823Z,90.90
2022-12-19T02:39:17.550Z,78.28
2022-12-19T02:42:27.725Z,83.27
2022-12-19T02:45:37.145Z,89.32
2022-12-19T02:48:41.516Z,83.60
2022-12-19T02:51:44.495Z,86.83
2022-12-19T02:54:53.987Z,72.55
2022-12-19T02:58:31.607Z,87.28
2022-12-19T03:01:47.846Z,93.50
2022-12-19T03:05:05.376Z,81.03
2022-12-19T03:08:33.969Z,95.45
2022-12-19T03:11:40.890Z,92.38
2022-12-19T03:14:44.623Z,83.05
2022-12-19T03:17:48.752Z,81.97
2022-12-19T03:21:04.787Z,86.82
2022-12-19T03:24:10.069Z,80.13
2022-12-19T03:27:24.704Z,87.93
2022-12-19T03:30:29.682Z,86.25
2022-12-19T03:33:34.899Z,89.22
2022-12-19T03:36:42.825Z,81.67
2022-12-19T03:39:49.087Z,80.78
2022-12-19T03:43:10.402Z,84.55
2022-12-19T03:46:26.634Z,86.75
2022-12-19T03:49:29.539Z,81.57
2022-12-19T03:52:51.317Z,89.00
2022-12-19T03:56:05.117Z,95.55
2022-12-19T03:59:13.373Z,81.63
2022-12-19T04:02:18.291Z,83.97
2022-12-19T04:05:24.673Z,84.30
2022-12-19T04:08:29.074Z,80.45
2022-12-19T04:11:38.799Z,83.35
2022-12-19T04:14:41.961Z,79.45
2022-12-19T04:17:51.755Z,80.90
2022-12-19T04:21:28.011Z,84.87
2022-12-19T04:24:34.989Z,75.53
2022-12-19T04:27:40.741Z,81.82
2022-12-19T04:30:45.180Z,76.93
2022-12-19T04:33:47.665Z,73.13
2022-12-19T04:36:51.320Z,77.57
2022-12-19T04:39:53.937Z,77.55
2022-12-19T04:42:56.600Z,75.13
2022-12-19T04:45:59.138Z,73.80
2022-12-19T04:49:01.948Z,84.40
2022-12-19T04:52:04.728Z,80.32
2022-12-19T04:55:07.917Z,77.17
2022-12-19T04:58:10.393Z,75.43
2022-12-19T05:01:14.380Z,92.47
2022-12-19T05:04:17.198Z,121.85
2022-12-19T05:07:19.688Z,79.33
2022-12-19T05:10:22.206Z,82.20
2022-12-19T05:13:24.688Z,81.07
2022-12-19T05:16:27.238Z,81.28
2022-12-19T05:19:30.548Z,78.67
2022-12-19T05:22:33.455Z,82.00
2022-12-19T05:25:35.974Z,76.68
2022-12-19T05:28:39.010Z,89.38
2022-12-19T05:31:41.922Z,89.63
2022-12-19T05:34:44.435Z,82.43
2022-12-19T05:37:46.882Z,92.53
2022-12-19T05:40:50.048Z,84.05
2022-12-19T05:43:55.054Z,81.80
2022-12-19T05:46:57.719Z,84.20
2022-12-19T05:50:00.322Z,87.35
2022-12-19T05:53:02.764Z,71.72
2022-12-19T05:56:17.514Z,91.55
2022-12-19T05:59:20.221Z,82.88
2022-12-19T06:02:23.166Z,82.82
2022-12-19T06:05:25.826Z,80.20
2022-12-19T06:08:28.311Z,85.32
2022-12-19T06:11:31.075Z,78.68
2022-12-19T06:14:33.661Z,89.83
2022-12-19T06:17:36.076Z,78.07
2022-12-19T06:20:39.229Z,79.57
2022-12-19T06:23:43.660Z,79.03
2022-12-19T06:26:46.166Z,83.40
2022-12-19T06:29:48.718Z,81.18
2022-12-19T06:32:51.453Z,71.97
2022-12-19T06:36:00.009Z,64.60
2022-12-19T06:39:02.765Z,64.22
2022-12-19T06:42:23.765Z,59.58
2022-12-19T06:45:26.292Z,59.42
2022-12-19T06:48:29.356Z,55.67
2022-12-19T06:51:33.191Z,54.80
2022-12-19T06:54:35.678Z,62.17
2022-12-19T06:57:45.352Z,61.25
2022-12-19T07:00:48.638Z,56.90
2022-12-19T07:03:51.922Z,56.47
2022-12-19T07:06:54.761Z,49.85
2022-12-19T07:09:57.565Z,46.73
2022-12-19T07:13:00.522Z,45.00
2022-12-19T07:16:05.328Z,49.90
2022-12-19T07:19:09.346Z,42.58
2022-12-19T07:22:14.071Z,46.33
2022-12-19T07:25:17.853Z,46.10
2022-12-19T07:28:20.392Z,43.88
2022-12-19T07:31:22.859Z,39.83
2022-12-19T07:34:26.286Z,39.55
2022-12-19T07:37:28.835Z,40.08
2022-12-19T07:40:33.785Z,42.63
2022-12-19T07:43:36.338Z,36.23
2022-12-19T07:46:39.911Z,38.28
2022-12-19T07:49:42.429Z,39.50
2022-12-19T07:52:45.414Z,38.45
2022-12-19T07:55:51.700Z,34.70
2022-12-19T07:58:54.373Z,35.85
2022-12-19T08:01:57.153Z,38.28
2022-12-19T08:05:03.043Z,35.83
2022-12-19T08:08:05.672Z,35.72
2022-12-19T08:11:22.379Z,35.45
2022-12-19T08:14:25.068Z,32.55
2022-12-19T08:17:27.565Z,34.57
2022-12-19T08:20:30.429Z,33.38
2022-12-19T08:23:33.125Z,36.35
2022-12-19T08:26:40.469Z,34.05
2022-12-19T08:29:45.773Z,28.65
2022-12-19T08:32:48.396Z,29.95
2022-12-19T08:35:51.499Z,26.27
2022-12-19T08:38:54.290Z,31.60
2022-12-19T08:41:56.811Z,29.20
2022-12-19T08:44:59.284Z,29.55
2022-12-19T08:48:01.783Z,28.83
2022-12-19T08:51:07.460Z,32.80
2022-12-19T08:54:11.896Z,32.53
2022-12-19T08:57:14.710Z,30.70
2022-12-19T09:00:18.086Z,33.85
2022-12-19T09:03:22.722Z,30.57
2022-12-19T09:06:27.342Z,30.00
2022-12-19T09:09:30.267Z,31.95
2022-12-19T09:12:32.813Z,30.33
2022-12-19T09:15:35.277Z,26.47
2022-12-19T09:18:45.169Z,29.80
2022-12-19T09:21:50.605Z,31.33
2022-12-19T09:24:53.202Z,28.25
2022-12-19T09:28:26.254Z,31.13
2022-12-19T09:31:21.493Z,28.65
2022-12-19T09:34:36.809Z,30.42
2022-12-19T09:37:40.799Z,32.63
2022-12-19T09:41:26.724Z,30.08
2022-12-19T09:44:47.871Z,26.45
2022-12-19T09:47:55.475Z,28.42
2022-12-19T09:51:13.886Z,30.80
2022-12-19T09:54:37.057Z,28.13
2022-12-19T09:58:13.550Z,28.35
2022-12-19T10:01:22.410Z,31.08
2022-12-19T10:04:29.763Z,28.15
2022-12-19T10:07:53.326Z,26.13
2022-12-19T10:12:43.953Z,29.95
2022-12-19T10:15:03.120Z,27.75
2022-12-19T10:18:34.301Z,28.92
2022-12-19T10:25:12.225Z,27.33
2022-12-19T10:28:38.036Z,32.35
2022-12-19T10:32:04.522Z,35.22
2022-12-19T10:35:18.941Z,37.08
2022-12-19T10:38:28.659Z,33.72
2022-12-19T10:41:32.601Z,33.63
2022-12-19T10:44:40.125Z,33.47
2022-12-19T10:47:42.758Z,32.60
2022-12-19T10:50:45.554Z,30.73
2022-12-19T10:53:55.270Z,27.40
2022-12-19T10:57:22.998Z,28.47
2022-12-19T11:00:26.358Z,40.90
2022-12-19T11:03:29.029Z,26.25
2022-12-19T11:06:37.749Z,25.52
2022-12-19T11:09:42.614Z,28.30
2022-12-19T11:18:14.718Z,30.27
2022-12-19T11:21:15.059Z,29.13
2022-12-19T11:29:25.515Z,27.70
2022-12-19T11:30:09.514Z,31.00
2022-12-19T11:30:43.940Z,27.95
2022-12-19T11:33:33.227Z,28.13
2022-12-19T11:36:55.945Z,28.52
2022-12-19T11:40:03.596Z,32.72
2022-12-19T11:46:51.548Z,32.30
2022-12-19T11:50:02.982Z,30.63
2022-12-19T11:53:19.203Z,30.80
2022-12-19T11:56:24.780Z,28.77
2022-12-19T11:59:38.568Z,31.58
2022-12-19T12:02:43.964Z,30.63
2022-12-19T12:05:48.026Z,33.78
2022-12-19T12:12:15.344Z,29.77
2022-12-19T12:18:41.636Z,29.83
2022-12-19T12:31:01.056Z,35.60
2022-12-19T12:31:22.672Z,34.15
2022-12-19T12:31:23.268Z,29.40
2022-12-19T12:32:03.187Z,23.80
2022-12-19T12:37:03.453Z,28.67
2022-12-19T12:39:02.521Z,28.00
2022-12-19T12:42:26.998Z,27.75
2022-12-19T12:45:41.382Z,28.92
2022-12-19T12:48:52.093Z,27.77
2022-12-19T12:51:55.361Z,29.37
2022-12-19T12:54:58.551Z,28.90
2022-12-19T12:58:01.236Z,28.25
2022-12-19T13:01:11.698Z,28.75
2022-12-19T13:04:15.775Z,30.27
2022-12-19T13:07:50.993Z,31.93
2022-12-19T13:10:56.541Z,26.23
2022-12-19T13:13:59.330Z,28.85
2022-12-19T13:17:21.787Z,29.33
2022-12-19T13:20:24.868Z,27.25
2022-12-19T13:23:30.695Z,31.45
2022-12-19T13:26:50.123Z,29.33
2022-12-19T13:30:03.664Z,28.30
2022-12-19T13:33:08.836Z,28.25
2022-12-19T13:39:54.780Z,31.35
2022-12-19T13:40:20.996Z,33.67
2022-12-19T13:43:49.933Z,31.63
2022-12-19T13:46:56.433Z,28.88
2022-12-19T13:50:04.309Z,35.03
2022-12-19T13:53:21.947Z,29.75
2022-12-19T13:56:24.416Z,38.53
2022-12-19T13:59:33.800Z,33.08
2022-12-19T14:02:45.250Z,32.92
2022-12-19T14:06:17.453Z,31.30
2022-12-19T14:11:26.089Z,32.70
2022-12-19T14:13:57.326Z,35.92
2022-12-19T14:16:43.967Z,29.20
2022-12-19T14:19:50.158Z,30.50
2022-12-19T14:23:00.296Z,36.72
2022-12-19T14:28:26.135Z,34.55
2022-12-19T14:30:29.329Z,32.08
2022-12-19T14:33:44.255Z,32.07
2022-12-19T14:36:31.470Z,31.63
2022-12-19T14:39:36.332Z,33.05
2022-12-19T14:43:59.309Z,36.45
2022-12-19T14:51:42.914Z,31.73
2022-12-19T14:54:13.006Z,29.75
2022-12-19T14:54:46.758Z,29.92
2022-12-19T14:57:01.047Z,32.63
2022-12-19T15:01:07.552Z,31.42
2022-12-19T15:04:52.466Z,32.95
2022-12-19T15:07:17.752Z,33.25
2022-12-19T15:11:03.853Z,32.80
2022-12-19T15:14:54.203Z,34.88
2022-12-19T15:17:23.883Z,35.03
2022-12-19T15:20:26.571Z,33.87
2022-12-19T15:23:29.874Z,35.13
2022-12-19T15:26:46.095Z,35.85
2022-12-19T15:29:49.564Z,32.38
2022-12-19T15:32:52.134Z,34.00
2022-12-19T15:35:55.934Z,29.88
2022-12-19T15:38:58.376Z,33.90
2022-12-19T15:42:01.955Z,40.95
2022-12-19T15:45:05.035Z,35.08
2022-12-19T15:48:18.129Z,35.53
2022-12-19T15:51:20.530Z,33.47
2022-12-19T15:57:51.235Z,33.55
2022-12-19T16:01:00.444Z,33.67
2022-12-19T16:04:03.609Z,38.20
2022-12-19T16:07:14.823Z,34.10
2022-12-19T16:10:17.830Z,33.03
2022-12-19T16:13:24.379Z,36.15
2022-12-19T16:16:27.158Z,31.43
2022-12-19T16:19:31.263Z,41.72
2022-12-19T16:22:33.840Z,34.88
2022-12-19T16:25:40.993Z,35.03
2022-12-19T16:28:43.626Z,39.17
2022-12-19T16:31:46.494Z,35.72
2022-12-19T16:34:48.981Z,37.63
2022-12-19T16:37:51.501Z,38.40
2022-12-19T16:40:54.051Z,42.50
2022-12-19T16:43:56.543Z,38.28
2022-12-19T16:46:59.270Z,41.65
2022-12-19T16:50:07.627Z,40.80
2022-12-19T16:53:10.160Z,40.65
2022-12-19T16:56:29.880Z,38.00
2022-12-19T16:59:41.638Z,39.33
2022-12-19T17:02:58.724Z,36.40
2022-12-19T17:06:01.528Z,42.80
2022-12-19T17:09:04.044Z,36.53
2022-12-19T17:12:06.822Z,34.73
2022-12-19T17:15:31.584Z,35.28
2022-12-19T17:18:37.209Z,35.80
2022-12-19T17:21:39.608Z,35.63
2022-12-19T17:24:43.558Z,36.23
2022-12-19T17:27:46.822Z,35.88
2022-12-19T17:30:52.495Z,36.22
2022-12-19T17:33:57.800Z,32.67
2022-12-19T17:37:03.246Z,32.75
2022-12-19T17:40:16.720Z,33.22
2022-12-19T17:43:19.142Z,36.80
2022-12-19T17:46:25.397Z,34.57
2022-12-19T17:49:31.069Z,36.80
2022-12-19T17:52:36.241Z,35.75
2022-12-19T17:55:38.631Z,37.90
2022-12-19T17:58:41.154Z,35.42
2022-12-19T18:01:47.435Z,37.58
2022-12-19T18:04:51.223Z,37.58
2022-12-19T18:07:54.533Z,36.03
2022-12-19T18:11:03.927Z,33.65
2022-12-19T18:14:06.349Z,39.58
2022-12-19T18:17:12.706Z,36.65
2022-12-19T18:20:19.284Z,38.47
2022-12-19T18:23:23.652Z,35.05
2022-12-19T18:26:26.566Z,36.13
2022-12-19T18:29:29.091Z,36.70
2022-12-19T18:32:34.165Z,33.72
2022-12-19T18:35:40.676Z,35.38
2022-12-19T18:38:43.321Z,34.83
2022-12-19T18:41:48.210Z,37.08
2022-12-19T18:44:50.688Z,43.60
2022-12-19T18:47:57.530Z,40.33
2022-12-19T18:51:02.168Z,36.47
2022-12-19T18:54:12.817Z,37.42
2022-12-19T18:57:15.499Z,38.55
2022-12-19T19:00:20.549Z,41.20
2022-12-19T19:03:29.171Z,36.38
2022-12-19T19:06:37.609Z,39.45
2022-12-19T19:09:41.471Z,38.03
2022-12-19T19:13:09.849Z,34.13
2022-12-19T19:16:19.016Z,39.85
2022-12-19T19:19:22.957Z,38.83
2022-12-19T19:22:25.882Z,38.15
2022-12-19T19:25:28.598Z,38.88
2022-12-19T19:28:31.346Z,36.70
2022-12-19T19:31:38.670Z,36.72
2022-12-19T19:34:41.666Z,39.83
2022-12-19T19:37:45.265Z,36.13
2022-12-19T19:40:49.235Z,37.88
2022-12-19T19:43:51.821Z,36.47
2022-12-19T19:46:54.357Z,41.43
2022-12-19T19:49:57.244Z,43.13
2022-12-19T19:53:00.227Z,39.80
2022-12-19T19:56:04.002Z,42.83
2022-12-19T19:59:06.643Z,42.33
2022-12-19T20:02:11.169Z,40.47
2022-12-19T20:05:13.961Z,42.42
2022-12-19T20:08:16.680Z,38.90
2022-12-19T20:11:20.526Z,44.83
2022-12-19T20:14:23.770Z,43.78
2022-12-19T20:17:26.673Z,40.08
2022-12-19T20:20:29.440Z,38.05
2022-12-19T20:23:32.084Z,38.65
2022-12-19T20:26:35.324Z,44.55
2022-12-19T20:29:37.955Z,39.00
2022-12-19T20:32:40.571Z,40.38
2022-12-19T20:35:43.660Z,38.92
2022-12-19T20:38:47.195Z,40.43
2022-12-19T20:41:51.512Z,40.20
2022-12-19T20:44:54.247Z,42.67
2022-12-19T20:47:57.559Z,43.65
2022-12-19T20:51:01.561Z,41.03
2022-12-19T20:54:05.202Z,42.63
2022-12-19T20:57:07.786Z,40.83
2022-12-19T21:00:11.529Z,42.47
2022-12-19T21:03:27.785Z,37.20
2022-12-19T21:06:31.433Z,41.72
2022-12-19T21:09:33.952Z,46.15
2022-12-19T21:12:38.000Z,42.07
2022-12-19T21:15:42.547Z,44.38
2022-12-19T21:18:47.370Z,43.45
2022-12-19T21:21:50.188Z,42.87
2022-12-19T21:24:52.604Z,45.25
2022-12-19T21:27:55.027Z,47.47
2022-12-19T21:31:06.864Z,48.00
2022-12-19T21:34:10.118Z,45.28
2022-12-19T21:37:12.502Z,47.28
2022-12-19T21:40:16.083Z,44.28
2022-12-19T21:43:18.715Z,47.90
2022-12-19T21:46:23.965Z,43.35
2022-12-19T21:49:26.613Z,46.63
2022-12-19T21:52:29.090Z,48.43
2022-12-19T21:55:31.528Z,46.38
2022-12-19T21:58:34.462Z,47.08
2022-12-19T22:01:37.032Z,46.65
2022-12-19T22:04:39.522Z,40.78
2022-12-19T22:07:41.968Z,40.53
2022-12-19T22:10:44.506Z,43.05
2022-12-19T22:13:48.702Z,48.03
2022-12-19T22:16:51.593Z,47.00
2022-12-19T22:19:55.378Z,41.97
2022-12-19T22:22:58.018Z,46.10
2022-12-19T22:26:07.261Z,40.88
2022-12-19T22:29:13.814Z,45.17
2022-12-19T22:32:17.928Z,44.92
2022-12-19T22:35:20.518Z,42.23
2022-12-19T22:38:23.007Z,49.45
2022-12-19T22:41:26.106Z,45.63
2022-12-19T22:44:28.583Z,43.47
2022-12-19T22:47:31.049Z,44.97
2022-12-19T22:50:33.719Z,47.42
2022-12-19T22:53:37.745Z,50.80
2022-12-19T22:56:40.458Z,42.53
2022-12-19T22:59:43.072Z,43.22
2022-12-19T23:02:45.649Z,46.95
2022-12-19T23:05:51.843Z,48.55
2022-12-19T23:08:54.944Z,49.97
2022-12-19T23:11:57.394Z,44.83
2022-12-19T23:14:59.864Z,46.15
2022-12-19T23:18:02.566Z,50.90
2022-12-19T23:21:07.675Z,48.72
2022-12-19T23:24:12.329Z,44.70
2022-12-19T23:27:14.959Z,46.40
2022-12-19T23:30:18.566Z,44.63
2022-12-19T23:33:21.311Z,49.53
2022-12-19T23:37:00.427Z,50.40
2022-12-19T23:39:47.055Z,41.53
2022-12-19T23:42:50.010Z,47.90
2022-12-19T23:45:52.898Z,48.55
2022-12-19T23:48:55.803Z,46.90
2022-12-19T23:52:00.009Z,45.50
2022-12-19T23:55:02.434Z,47.35
2022-12-19T23:58:09.621Z,49.95
